sensor_id;sensor_type;location;lat;lon;timestamp;P1;durP1;ratioP1;P2;durP2;ratioP2
52041;SDS011;38052;45.944;13.624;2023-11-25T00:00:03;1.95;;;0.60;;
52041;SDS011;38052;45.944;13.624;2023-11-25T00:02:31;1.27;;;0.50;;
52041;SDS011;38052;45.944;13.624;2023-11-25T00:04:58;1.60;;;0.50;;
52041;SDS011;38052;45.944;13.624;2023-11-25T00:07:25;1.35;;;0.57;;
52041;SDS011;38052;45.944;13.624;2023-11-25T00:09:51;1.80;;;0.60;;
52041;SDS011;38052;45.944;13.624;2023-11-25T00:12:19;4.40;;;0.80;;
52041;SDS011;38052;45.944;13.624;2023-11-25T00:14:45;2.03;;;0.77;;
52041;SDS011;38052;45.944;13.624;2023-11-25T00:17:11;1.23;;;0.50;;
52041;SDS011;38052;45.944;13.624;2023-11-25T00:19:37;2.40;;;0.80;;
52041;SDS011;38052;45.944;13.624;2023-11-25T00:22:04;3.45;;;0.90;;
52041;SDS011;38052;45.944;13.624;2023-11-25T00:24:31;3.10;;;1.10;;
52041;SDS011;38052;45.944;13.624;2023-11-25T00:26:57;3.38;;;0.90;;
52041;SDS011;38052;45.944;13.624;2023-11-25T00:29:23;1.33;;;0.70;;
52041;SDS011;38052;45.944;13.624;2023-11-25T00:31:52;1.73;;;0.75;;
52041;SDS011;38052;45.944;13.624;2023-11-25T00:34:20;2.55;;;0.90;;
52041;SDS011;38052;45.944;13.624;2023-11-25T00:36:47;0.73;;;0.30;;
52041;SDS011;38052;45.944;13.624;2023-11-25T00:39:14;2.75;;;0.70;;
52041;SDS011;38052;45.944;13.624;2023-11-25T00:41:41;1.90;;;0.55;;
52041;SDS011;38052;45.944;13.624;2023-11-25T00:44:07;2.85;;;0.40;;
52041;SDS011;38052;45.944;13.624;2023-11-25T00:46:34;1.33;;;0.20;;
52041;SDS011;38052;45.944;13.624;2023-11-25T00:49:01;1.63;;;0.40;;
52041;SDS011;38052;45.944;13.624;2023-11-25T00:51:27;2.35;;;0.57;;
52041;SDS011;38052;45.944;13.624;2023-11-25T00:53:53;1.10;;;0.43;;
52041;SDS011;38052;45.944;13.624;2023-11-25T00:56:20;1.05;;;0.45;;
52041;SDS011;38052;45.944;13.624;2023-11-25T00:58:46;1.42;;;0.60;;
52041;SDS011;38052;45.944;13.624;2023-11-25T01:01:13;1.98;;;0.80;;
52041;SDS011;38052;45.944;13.624;2023-11-25T01:03:40;2.25;;;0.65;;
52041;SDS011;38052;45.944;13.624;2023-11-25T01:06:07;2.60;;;0.68;;
52041;SDS011;38052;45.944;13.624;2023-11-25T01:08:33;1.92;;;0.73;;
52041;SDS011;38052;45.944;13.624;2023-11-25T01:10:59;1.77;;;0.63;;
52041;SDS011;38052;45.944;13.624;2023-11-25T01:13:26;1.27;;;0.73;;
52041;SDS011;38052;45.944;13.624;2023-11-25T01:15:53;4.95;;;0.85;;
52041;SDS011;38052;45.944;13.624;2023-11-25T01:18:20;1.63;;;0.70;;
52041;SDS011;38052;45.944;13.624;2023-11-25T01:20:47;1.83;;;0.50;;
52041;SDS011;38052;45.944;13.624;2023-11-25T01:23:14;1.88;;;0.60;;
52041;SDS011;38052;45.944;13.624;2023-11-25T01:25:43;1.48;;;0.60;;
52041;SDS011;38052;45.944;13.624;2023-11-25T01:28:10;1.50;;;0.60;;
52041;SDS011;38052;45.944;13.624;2023-11-25T01:30:37;1.20;;;0.50;;
52041;SDS011;38052;45.944;13.624;2023-11-25T01:33:04;3.35;;;1.58;;
52041;SDS011;38052;45.944;13.624;2023-11-25T01:35:31;2.50;;;1.20;;
52041;SDS011;38052;45.944;13.624;2023-11-25T01:37:58;2.92;;;1.35;;
52041;SDS011;38052;45.944;13.624;2023-11-25T01:40:25;3.42;;;1.50;;
52041;SDS011;38052;45.944;13.624;2023-11-25T01:42:55;2.85;;;1.15;;
52041;SDS011;38052;45.944;13.624;2023-11-25T01:45:22;2.58;;;1.05;;
52041;SDS011;38052;45.944;13.624;2023-11-25T01:47:49;2.97;;;0.77;;
52041;SDS011;38052;45.944;13.624;2023-11-25T01:50:17;2.22;;;0.75;;
52041;SDS011;38052;45.944;13.624;2023-11-25T01:52:44;2.80;;;0.95;;
52041;SDS011;38052;45.944;13.624;2023-11-25T01:55:11;3.00;;;1.23;;
52041;SDS011;38052;45.944;13.624;2023-11-25T01:57:38;2.15;;;0.90;;
52041;SDS011;38052;45.944;13.624;2023-11-25T02:00:05;2.55;;;1.15;;
52041;SDS011;38052;45.944;13.624;2023-11-25T02:02:33;3.42;;;1.23;;
52041;SDS011;38052;45.944;13.624;2023-11-25T02:05:03;4.20;;;2.08;;
52041;SDS011;38052;45.944;13.624;2023-11-25T02:07:29;2.05;;;1.15;;
52041;SDS011;38052;45.944;13.624;2023-11-25T02:09:55;3.42;;;1.40;;
52041;SDS011;38052;45.944;13.624;2023-11-25T02:12:22;4.00;;;1.52;;
52041;SDS011;38052;45.944;13.624;2023-11-25T02:14:49;4.15;;;2.45;;
52041;SDS011;38052;45.944;13.624;2023-11-25T02:17:15;3.15;;;1.42;;
52041;SDS011;38052;45.944;13.624;2023-11-25T02:19:42;5.35;;;1.42;;
52041;SDS011;38052;45.944;13.624;2023-11-25T02:22:09;7.65;;;1.73;;
52041;SDS011;38052;45.944;13.624;2023-11-25T02:24:36;2.75;;;1.13;;
52041;SDS011;38052;45.944;13.624;2023-11-25T02:27:03;3.83;;;1.13;;
52041;SDS011;38052;45.944;13.624;2023-11-25T02:29:30;3.10;;;1.30;;
52041;SDS011;38052;45.944;13.624;2023-11-25T02:31:57;3.30;;;1.42;;
52041;SDS011;38052;45.944;13.624;2023-11-25T02:34:27;3.25;;;1.65;;
52041;SDS011;38052;45.944;13.624;2023-11-25T02:36:54;4.95;;;1.60;;
52041;SDS011;38052;45.944;13.624;2023-11-25T02:39:20;4.00;;;1.80;;
52041;SDS011;38052;45.944;13.624;2023-11-25T02:41:51;5.47;;;2.10;;
52041;SDS011;38052;45.944;13.624;2023-11-25T02:44:18;3.88;;;1.50;;
52041;SDS011;38052;45.944;13.624;2023-11-25T02:46:44;2.45;;;0.90;;
52041;SDS011;38052;45.944;13.624;2023-11-25T02:49:11;3.17;;;1.52;;
52041;SDS011;38052;45.944;13.624;2023-11-25T02:51:38;2.58;;;1.23;;
52041;SDS011;38052;45.944;13.624;2023-11-25T02:54:04;3.38;;;1.35;;
52041;SDS011;38052;45.944;13.624;2023-11-25T02:56:33;3.90;;;1.42;;
52041;SDS011;38052;45.944;13.624;2023-11-25T02:59:00;1.70;;;0.40;;
52041;SDS011;38052;45.944;13.624;2023-11-25T03:01:27;3.17;;;1.25;;
52041;SDS011;38052;45.944;13.624;2023-11-25T03:03:55;2.65;;;0.98;;
52041;SDS011;38052;45.944;13.624;2023-11-25T03:06:29;2.90;;;1.17;;
52041;SDS011;38052;45.944;13.624;2023-11-25T03:08:56;4.82;;;1.23;;
52041;SDS011;38052;45.944;13.624;2023-11-25T03:11:22;2.47;;;1.17;;
52041;SDS011;38052;45.944;13.624;2023-11-25T03:13:48;2.85;;;1.00;;
52041;SDS011;38052;45.944;13.624;2023-11-25T03:16:15;2.30;;;0.80;;
52041;SDS011;38052;45.944;13.624;2023-11-25T03:18:41;2.63;;;0.88;;
52041;SDS011;38052;45.944;13.624;2023-11-25T03:21:08;2.88;;;0.98;;
52041;SDS011;38052;45.944;13.624;2023-11-25T03:23:35;1.73;;;0.75;;
52041;SDS011;38052;45.944;13.624;2023-11-25T03:26:04;1.77;;;0.60;;
52041;SDS011;38052;45.944;13.624;2023-11-25T03:28:31;1.15;;;0.30;;
52041;SDS011;38052;45.944;13.624;2023-11-25T03:31:02;1.70;;;0.50;;
52041;SDS011;38052;45.944;13.624;2023-11-25T03:33:29;2.33;;;0.60;;
52041;SDS011;38052;45.944;13.624;2023-11-25T03:35:55;3.28;;;0.60;;
52041;SDS011;38052;45.944;13.624;2023-11-25T03:38:22;2.67;;;1.00;;
52041;SDS011;38052;45.944;13.624;2023-11-25T03:40:49;3.10;;;0.93;;
52041;SDS011;38052;45.944;13.624;2023-11-25T03:43:17;1.85;;;0.82;;
52041;SDS011;38052;45.944;13.624;2023-11-25T03:45:44;2.25;;;0.73;;
52041;SDS011;38052;45.944;13.624;2023-11-25T03:48:10;2.47;;;0.90;;
52041;SDS011;38052;45.944;13.624;2023-11-25T03:50:36;1.35;;;0.47;;
52041;SDS011;38052;45.944;13.624;2023-11-25T03:53:03;1.13;;;0.60;;
52041;SDS011;38052;45.944;13.624;2023-11-25T03:55:29;2.72;;;0.82;;
52041;SDS011;38052;45.944;13.624;2023-11-25T03:57:55;1.85;;;0.80;;
52041;SDS011;38052;45.944;13.624;2023-11-25T04:00:22;2.28;;;0.85;;
52041;SDS011;38052;45.944;13.624;2023-11-25T04:02:49;2.92;;;0.73;;
52041;SDS011;38052;45.944;13.624;2023-11-25T04:05:16;3.08;;;1.00;;
52041;SDS011;38052;45.944;13.624;2023-11-25T04:07:43;2.78;;;0.73;;
52041;SDS011;38052;45.944;13.624;2023-11-25T04:10:10;3.00;;;0.70;;
52041;SDS011;38052;45.944;13.624;2023-11-25T04:12:43;2.37;;;1.27;;
52041;SDS011;38052;45.944;13.624;2023-11-25T04:15:10;3.13;;;0.68;;
52041;SDS011;38052;45.944;13.624;2023-11-25T04:17:40;3.08;;;1.05;;
52041;SDS011;38052;45.944;13.624;2023-11-25T04:20:07;3.35;;;0.70;;
52041;SDS011;38052;45.944;13.624;2023-11-25T04:22:46;2.67;;;0.73;;
52041;SDS011;38052;45.944;13.624;2023-11-25T04:25:13;2.47;;;1.15;;
52041;SDS011;38052;45.944;13.624;2023-11-25T04:27:41;1.85;;;0.90;;
52041;SDS011;38052;45.944;13.624;2023-11-25T04:30:08;2.67;;;1.10;;
52041;SDS011;38052;45.944;13.624;2023-11-25T04:32:36;2.45;;;0.95;;
52041;SDS011;38052;45.944;13.624;2023-11-25T04:35:02;2.15;;;0.55;;
52041;SDS011;38052;45.944;13.624;2023-11-25T04:37:31;2.60;;;0.82;;
52041;SDS011;38052;45.944;13.624;2023-11-25T04:39:57;1.35;;;0.50;;
52041;SDS011;38052;45.944;13.624;2023-11-25T04:42:23;1.83;;;0.73;;
52041;SDS011;38052;45.944;13.624;2023-11-25T04:44:50;1.17;;;0.50;;
52041;SDS011;38052;45.944;13.624;2023-11-25T04:47:16;1.42;;;0.50;;
52041;SDS011;38052;45.944;13.624;2023-11-25T04:49:42;6.60;;;0.50;;
52041;SDS011;38052;45.944;13.624;2023-11-25T04:52:09;1.98;;;0.50;;
52041;SDS011;38052;45.944;13.624;2023-11-25T04:54:35;1.70;;;0.82;;
52041;SDS011;38052;45.944;13.624;2023-11-25T04:57:03;1.00;;;0.35;;
52041;SDS011;38052;45.944;13.624;2023-11-25T04:59:30;2.45;;;0.85;;
52041;SDS011;38052;45.944;13.624;2023-11-25T05:01:57;1.80;;;0.50;;
52041;SDS011;38052;45.944;13.624;2023-11-25T05:04:24;2.00;;;0.50;;
52041;SDS011;38052;45.944;13.624;2023-11-25T05:06:51;2.47;;;0.47;;
52041;SDS011;38052;45.944;13.624;2023-11-25T05:09:17;1.83;;;0.40;;
52041;SDS011;38052;45.944;13.624;2023-11-25T05:11:44;1.65;;;0.60;;
52041;SDS011;38052;45.944;13.624;2023-11-25T05:14:10;2.92;;;0.40;;
52041;SDS011;38052;45.944;13.624;2023-11-25T05:16:37;2.78;;;0.85;;
52041;SDS011;38052;45.944;13.624;2023-11-25T05:19:04;1.35;;;0.50;;
52041;SDS011;38052;45.944;13.624;2023-11-25T05:21:30;1.25;;;0.52;;
52041;SDS011;38052;45.944;13.624;2023-11-25T05:23:56;1.55;;;0.70;;
52041;SDS011;38052;45.944;13.624;2023-11-25T05:26:23;5.70;;;1.05;;
52041;SDS011;38052;45.944;13.624;2023-11-25T05:28:50;4.78;;;1.85;;
52041;SDS011;38052;45.944;13.624;2023-11-25T05:31:16;1.98;;;0.70;;
52041;SDS011;38052;45.944;13.624;2023-11-25T05:33:42;4.40;;;1.20;;
52041;SDS011;38052;45.944;13.624;2023-11-25T05:36:09;3.65;;;1.30;;
52041;SDS011;38052;45.944;13.624;2023-11-25T05:38:36;3.67;;;1.20;;
52041;SDS011;38052;45.944;13.624;2023-11-25T05:41:02;4.35;;;1.05;;
52041;SDS011;38052;45.944;13.624;2023-11-25T05:43:29;2.95;;;0.93;;
52041;SDS011;38052;45.944;13.624;2023-11-25T05:45:55;3.42;;;0.90;;
52041;SDS011;38052;45.944;13.624;2023-11-25T05:48:23;3.67;;;1.00;;
52041;SDS011;38052;45.944;13.624;2023-11-25T05:50:52;3.80;;;1.00;;
52041;SDS011;38052;45.944;13.624;2023-11-25T05:53:18;3.47;;;1.00;;
52041;SDS011;38052;45.944;13.624;2023-11-25T05:55:45;2.25;;;0.55;;
52041;SDS011;38052;45.944;13.624;2023-11-25T05:58:11;4.25;;;0.80;;
52041;SDS011;38052;45.944;13.624;2023-11-25T06:00:38;1.70;;;0.45;;
52041;SDS011;38052;45.944;13.624;2023-11-25T06:03:05;2.45;;;1.08;;
52041;SDS011;38052;45.944;13.624;2023-11-25T06:05:31;2.10;;;0.52;;
52041;SDS011;38052;45.944;13.624;2023-11-25T06:07:57;2.83;;;0.65;;
52041;SDS011;38052;45.944;13.624;2023-11-25T06:10:24;5.57;;;1.02;;
52041;SDS011;38052;45.944;13.624;2023-11-25T06:12:50;2.65;;;0.60;;
52041;SDS011;38052;45.944;13.624;2023-11-25T06:15:17;1.98;;;0.60;;
52041;SDS011;38052;45.944;13.624;2023-11-25T06:17:45;4.20;;;0.95;;
52041;SDS011;38052;45.944;13.624;2023-11-25T06:20:12;4.07;;;1.02;;
52041;SDS011;38052;45.944;13.624;2023-11-25T06:22:38;2.45;;;0.63;;
52041;SDS011;38052;45.944;13.624;2023-11-25T06:25:06;2.10;;;0.68;;
52041;SDS011;38052;45.944;13.624;2023-11-25T06:27:33;4.40;;;0.82;;
52041;SDS011;38052;45.944;13.624;2023-11-25T06:29:59;3.92;;;1.08;;
52041;SDS011;38052;45.944;13.624;2023-11-25T06:32:26;4.32;;;1.98;;
52041;SDS011;38052;45.944;13.624;2023-11-25T06:34:53;4.93;;;1.10;;
52041;SDS011;38052;45.944;13.624;2023-11-25T06:37:22;3.38;;;1.20;;
52041;SDS011;38052;45.944;13.624;2023-11-25T06:39:48;2.95;;;1.10;;
52041;SDS011;38052;45.944;13.624;2023-11-25T06:42:15;4.13;;;1.10;;
52041;SDS011;38052;45.944;13.624;2023-11-25T06:44:41;4.10;;;1.10;;
52041;SDS011;38052;45.944;13.624;2023-11-25T06:47:09;2.88;;;1.02;;
52041;SDS011;38052;45.944;13.624;2023-11-25T06:49:36;5.97;;;1.13;;
52041;SDS011;38052;45.944;13.624;2023-11-25T06:52:03;5.47;;;1.25;;
52041;SDS011;38052;45.944;13.624;2023-11-25T06:54:30;3.92;;;1.20;;
52041;SDS011;38052;45.944;13.624;2023-11-25T06:56:56;2.80;;;1.05;;
52041;SDS011;38052;45.944;13.624;2023-11-25T06:59:23;2.65;;;1.20;;
52041;SDS011;38052;45.944;13.624;2023-11-25T07:01:53;7.63;;;1.25;;
52041;SDS011;38052;45.944;13.624;2023-11-25T07:04:19;2.42;;;1.23;;
52041;SDS011;38052;45.944;13.624;2023-11-25T07:06:46;3.20;;;1.08;;
52041;SDS011;38052;45.944;13.624;2023-11-25T07:09:12;5.43;;;1.00;;
52041;SDS011;38052;45.944;13.624;2023-11-25T07:11:39;2.45;;;1.00;;
52041;SDS011;38052;45.944;13.624;2023-11-25T07:14:05;3.45;;;1.30;;
52041;SDS011;38052;45.944;13.624;2023-11-25T07:16:35;2.40;;;0.80;;
52041;SDS011;38052;45.944;13.624;2023-11-25T07:19:01;4.07;;;1.00;;
52041;SDS011;38052;45.944;13.624;2023-11-25T07:21:30;4.28;;;1.05;;
52041;SDS011;38052;45.944;13.624;2023-11-25T07:23:56;3.78;;;1.42;;
52041;SDS011;38052;45.944;13.624;2023-11-25T07:26:23;3.65;;;0.93;;
52041;SDS011;38052;45.944;13.624;2023-11-25T07:28:51;5.15;;;1.00;;
52041;SDS011;38052;45.944;13.624;2023-11-25T07:31:20;2.25;;;0.88;;
52041;SDS011;38052;45.944;13.624;2023-11-25T07:33:47;3.63;;;1.02;;
52041;SDS011;38052;45.944;13.624;2023-11-25T07:36:14;3.25;;;0.70;;
52041;SDS011;38052;45.944;13.624;2023-11-25T07:38:41;4.55;;;1.35;;
52041;SDS011;38052;45.944;13.624;2023-11-25T07:41:14;6.82;;;1.42;;
52041;SDS011;38052;45.944;13.624;2023-11-25T07:43:41;2.35;;;1.05;;
52041;SDS011;38052;45.944;13.624;2023-11-25T07:46:07;3.20;;;0.68;;
52041;SDS011;38052;45.944;13.624;2023-11-25T07:48:36;2.55;;;0.88;;
52041;SDS011;38052;45.944;13.624;2023-11-25T07:51:03;2.83;;;0.82;;
52041;SDS011;38052;45.944;13.624;2023-11-25T07:53:29;3.47;;;0.82;;
52041;SDS011;38052;45.944;13.624;2023-11-25T07:55:56;4.05;;;0.80;;
52041;SDS011;38052;45.944;13.624;2023-11-25T07:58:22;3.38;;;0.77;;
52041;SDS011;38052;45.944;13.624;2023-11-25T08:00:49;7.35;;;1.30;;
52041;SDS011;38052;45.944;13.624;2023-11-25T08:03:16;4.50;;;0.80;;
52041;SDS011;38052;45.944;13.624;2023-11-25T08:05:42;3.67;;;1.10;;
52041;SDS011;38052;45.944;13.624;2023-11-25T08:08:09;6.55;;;1.70;;
52041;SDS011;38052;45.944;13.624;2023-11-25T08:10:37;2.40;;;0.85;;
52041;SDS011;38052;45.944;13.624;2023-11-25T08:13:04;2.10;;;0.60;;
52041;SDS011;38052;45.944;13.624;2023-11-25T08:15:31;2.15;;;0.90;;
52041;SDS011;38052;45.944;13.624;2023-11-25T08:17:57;2.45;;;0.70;;
52041;SDS011;38052;45.944;13.624;2023-11-25T08:20:23;2.90;;;0.60;;
52041;SDS011;38052;45.944;13.624;2023-11-25T08:22:50;1.58;;;0.30;;
52041;SDS011;38052;45.944;13.624;2023-11-25T08:25:17;2.38;;;0.20;;
52041;SDS011;38052;45.944;13.624;2023-11-25T08:27:43;0.40;;;0.00;;
52041;SDS011;38052;45.944;13.624;2023-11-25T08:30:10;0.98;;;0.00;;
52041;SDS011;38052;45.944;13.624;2023-11-25T08:32:37;0.40;;;0.10;;
52041;SDS011;38052;45.944;13.624;2023-11-25T08:35:04;0.10;;;0.00;;
52041;SDS011;38052;45.944;13.624;2023-11-25T08:37:31;0.30;;;0.10;;
52041;SDS011;38052;45.944;13.624;2023-11-25T08:39:58;0.35;;;0.10;;
52041;SDS011;38052;45.944;13.624;2023-11-25T08:42:25;1.00;;;0.10;;
52041;SDS011;38052;45.944;13.624;2023-11-25T08:44:54;0.43;;;0.00;;
52041;SDS011;38052;45.944;13.624;2023-11-25T08:47:20;0.40;;;0.00;;
52041;SDS011;38052;45.944;13.624;2023-11-25T08:49:47;3.03;;;0.10;;
52041;SDS011;38052;45.944;13.624;2023-11-25T08:52:17;1.15;;;0.20;;
52041;SDS011;38052;45.944;13.624;2023-11-25T08:54:44;1.60;;;0.10;;
52041;SDS011;38052;45.944;13.624;2023-11-25T08:57:14;0.08;;;0.00;;
52041;SDS011;38052;45.944;13.624;2023-11-25T08:59:42;0.28;;;0.10;;
52041;SDS011;38052;45.944;13.624;2023-11-25T09:02:08;0.00;;;0.00;;
52041;SDS011;38052;45.944;13.624;2023-11-25T09:04:38;3.65;;;0.08;;
52041;SDS011;38052;45.944;13.624;2023-11-25T09:07:07;0.25;;;0.00;;
52041;SDS011;38052;45.944;13.624;2023-11-25T09:09:39;0.63;;;0.00;;
52041;SDS011;38052;45.944;13.624;2023-11-25T09:12:10;0.25;;;0.03;;
52041;SDS011;38052;45.944;13.624;2023-11-25T09:14:36;1.77;;;0.10;;
52041;SDS011;38052;45.944;13.624;2023-11-25T09:17:03;0.00;;;0.00;;
52041;SDS011;38052;45.944;13.624;2023-11-25T09:19:30;0.20;;;0.00;;
52041;SDS011;38052;45.944;13.624;2023-11-25T09:21:58;0.75;;;0.10;;
52041;SDS011;38052;45.944;13.624;2023-11-25T09:24:25;5.80;;;0.10;;
52041;SDS011;38052;45.944;13.624;2023-11-25T09:26:51;0.15;;;0.00;;
52041;SDS011;38052;45.944;13.624;2023-11-25T09:29:20;0.17;;;0.00;;
52041;SDS011;38052;45.944;13.624;2023-11-25T09:31:46;0.10;;;0.00;;
52041;SDS011;38052;45.944;13.624;2023-11-25T09:34:14;2.03;;;0.30;;
52041;SDS011;38052;45.944;13.624;2023-11-25T09:36:40;0.30;;;0.10;;
52041;SDS011;38052;45.944;13.624;2023-11-25T09:39:07;2.75;;;1.00;;
52041;SDS011;38052;45.944;13.624;2023-11-25T09:41:34;0.32;;;0.10;;
52041;SDS011;38052;45.944;13.624;2023-11-25T09:44:01;1.70;;;0.10;;
52041;SDS011;38052;45.944;13.624;2023-11-25T09:46:32;0.00;;;0.00;;
52041;SDS011;38052;45.944;13.624;2023-11-25T09:48:58;0.85;;;0.20;;
52041;SDS011;38052;45.944;13.624;2023-11-25T09:51:25;0.43;;;0.00;;
52041;SDS011;38052;45.944;13.624;2023-11-25T09:53:57;2.83;;;0.10;;
52041;SDS011;38052;45.944;13.624;2023-11-25T09:56:27;0.68;;;0.30;;
52041;SDS011;38052;45.944;13.624;2023-11-25T09:58:55;0.25;;;0.20;;
52041;SDS011;38052;45.944;13.624;2023-11-25T10:01:22;1.42;;;0.20;;
52041;SDS011;38052;45.944;13.624;2023-11-25T10:03:48;0.47;;;0.05;;
52041;SDS011;38052;45.944;13.624;2023-11-25T10:06:15;0.90;;;0.10;;
52041;SDS011;38052;45.944;13.624;2023-11-25T10:08:43;6.95;;;0.65;;
52041;SDS011;38052;45.944;13.624;2023-11-25T10:11:10;0.52;;;0.10;;
52041;SDS011;38052;45.944;13.624;2023-11-25T10:13:40;2.08;;;0.10;;
52041;SDS011;38052;45.944;13.624;2023-11-25T10:16:08;1.23;;;0.25;;
52041;SDS011;38052;45.944;13.624;2023-11-25T10:18:37;0.82;;;0.20;;
52041;SDS011;38052;45.944;13.624;2023-11-25T10:21:05;1.40;;;0.20;;
52041;SDS011;38052;45.944;13.624;2023-11-25T10:23:32;2.42;;;1.23;;
52041;SDS011;38052;45.944;13.624;2023-11-25T10:25:58;1.52;;;0.40;;
52041;SDS011;38052;45.944;13.624;2023-11-25T10:28:28;1.65;;;0.10;;
52041;SDS011;38052;45.944;13.624;2023-11-25T10:30:59;1.10;;;0.00;;
52041;SDS011;38052;45.944;13.624;2023-11-25T10:33:26;0.15;;;0.10;;
52041;SDS011;38052;45.944;13.624;2023-11-25T10:35:53;0.43;;;0.08;;
52041;SDS011;38052;45.944;13.624;2023-11-25T10:38:19;0.55;;;0.00;;
52041;SDS011;38052;45.944;13.624;2023-11-25T10:40:59;0.55;;;0.10;;
52041;SDS011;38052;45.944;13.624;2023-11-25T10:43:31;3.55;;;0.20;;
52041;SDS011;38052;45.944;13.624;2023-11-25T10:46:05;1.23;;;0.47;;
52041;SDS011;38052;45.944;13.624;2023-11-25T10:48:32;0.70;;;0.10;;
52041;SDS011;38052;45.944;13.624;2023-11-25T10:50:58;0.90;;;0.20;;
52041;SDS011;38052;45.944;13.624;2023-11-25T10:53:27;0.75;;;0.17;;
52041;SDS011;38052;45.944;13.624;2023-11-25T10:55:57;0.85;;;0.20;;
52041;SDS011;38052;45.944;13.624;2023-11-25T10:58:24;2.08;;;0.13;;
52041;SDS011;38052;45.944;13.624;2023-11-25T11:00:57;0.40;;;0.13;;
52041;SDS011;38052;45.944;13.624;2023-11-25T11:06:26;0.20;;;0.10;;
52041;SDS011;38052;45.944;13.624;2023-11-25T11:08:53;0.50;;;0.10;;
52041;SDS011;38052;45.944;13.624;2023-11-25T11:11:34;0.68;;;0.10;;
52041;SDS011;38052;45.944;13.624;2023-11-25T11:16:35;0.20;;;0.00;;
52041;SDS011;38052;45.944;13.624;2023-11-25T11:19:03;0.20;;;0.00;;
52041;SDS011;38052;45.944;13.624;2023-11-25T11:21:32;0.70;;;0.00;;
52041;SDS011;38052;45.944;13.624;2023-11-25T11:24:00;0.10;;;0.00;;
52041;SDS011;38052;45.944;13.624;2023-11-25T11:26:32;0.25;;;0.10;;
52041;SDS011;38052;45.944;13.624;2023-11-25T11:33:58;3.13;;;0.47;;
52041;SDS011;38052;45.944;13.624;2023-11-25T11:36:29;0.85;;;0.20;;
52041;SDS011;38052;45.944;13.624;2023-11-25T11:38:55;1.40;;;0.10;;
52041;SDS011;38052;45.944;13.624;2023-11-25T11:41:23;0.05;;;0.00;;
52041;SDS011;38052;45.944;13.624;2023-11-25T11:46:29;0.60;;;0.20;;
52041;SDS011;38052;45.944;13.624;2023-11-25T11:48:56;1.00;;;0.10;;
52041;SDS011;38052;45.944;13.624;2023-11-25T11:51:25;0.98;;;0.30;;
52041;SDS011;38052;45.944;13.624;2023-11-25T11:56:57;1.25;;;0.32;;
52041;SDS011;38052;45.944;13.624;2023-11-25T11:59:55;0.45;;;0.20;;
52041;SDS011;38052;45.944;13.624;2023-11-25T12:02:11;0.65;;;0.20;;
52041;SDS011;38052;45.944;13.624;2023-11-25T12:04:38;0.88;;;0.10;;
52041;SDS011;38052;45.944;13.624;2023-11-25T12:07:05;0.70;;;0.20;;
52041;SDS011;38052;45.944;13.624;2023-11-25T12:09:32;1.70;;;0.17;;
52041;SDS011;38052;45.944;13.624;2023-11-25T12:11:58;2.90;;;0.20;;
52041;SDS011;38052;45.944;13.624;2023-11-25T12:14:26;0.10;;;0.00;;
52041;SDS011;38052;45.944;13.624;2023-11-25T12:16:53;1.98;;;1.17;;
52041;SDS011;38052;45.944;13.624;2023-11-25T12:19:20;4.40;;;0.70;;
52041;SDS011;38052;45.944;13.624;2023-11-25T12:21:47;4.95;;;1.02;;
52041;SDS011;38052;45.944;13.624;2023-11-25T12:24:14;0.68;;;0.25;;
52041;SDS011;38052;45.944;13.624;2023-11-25T12:26:41;2.08;;;0.55;;
52041;SDS011;38052;45.944;13.624;2023-11-25T12:29:09;7.20;;;0.70;;
52041;SDS011;38052;45.944;13.624;2023-11-25T12:31:37;3.15;;;1.13;;
52041;SDS011;38052;45.944;13.624;2023-11-25T12:34:04;1.27;;;0.70;;
52041;SDS011;38052;45.944;13.624;2023-11-25T12:36:30;3.63;;;1.60;;
52041;SDS011;38052;45.944;13.624;2023-11-25T12:38:56;2.75;;;1.13;;
52041;SDS011;38052;45.944;13.624;2023-11-25T12:41:23;1.40;;;0.40;;
52041;SDS011;38052;45.944;13.624;2023-11-25T12:44:05;2.15;;;0.80;;
52041;SDS011;38052;45.944;13.624;2023-11-25T12:46:31;3.28;;;1.20;;
52041;SDS011;38052;45.944;13.624;2023-11-25T12:48:58;0.98;;;0.30;;
52041;SDS011;38052;45.944;13.624;2023-11-25T12:51:24;0.85;;;0.20;;
52041;SDS011;38052;45.944;13.624;2023-11-25T12:53:54;0.10;;;0.03;;
52041;SDS011;38052;45.944;13.624;2023-11-25T12:56:23;0.32;;;0.00;;
52041;SDS011;38052;45.944;13.624;2023-11-25T12:58:50;1.20;;;0.10;;
52041;SDS011;38052;45.944;13.624;2023-11-25T13:01:17;0.63;;;0.10;;
52041;SDS011;38052;45.944;13.624;2023-11-25T13:03:49;1.40;;;0.20;;
52041;SDS011;38052;45.944;13.624;2023-11-25T13:06:16;0.63;;;0.10;;
52041;SDS011;38052;45.944;13.624;2023-11-25T13:08:46;0.38;;;0.10;;
52041;SDS011;38052;45.944;13.624;2023-11-25T13:11:13;1.70;;;0.13;;
52041;SDS011;38052;45.944;13.624;2023-11-25T13:13:42;0.10;;;0.10;;
52041;SDS011;38052;45.944;13.624;2023-11-25T13:16:10;2.22;;;0.10;;
52041;SDS011;38052;45.944;13.624;2023-11-25T13:18:37;0.85;;;0.30;;
52041;SDS011;38052;45.944;13.624;2023-11-25T13:21:11;2.67;;;0.70;;
52041;SDS011;38052;45.944;13.624;2023-11-25T13:23:38;0.57;;;0.10;;
52041;SDS011;38052;45.944;13.624;2023-11-25T13:26:05;0.93;;;0.10;;
52041;SDS011;38052;45.944;13.624;2023-11-25T13:28:32;0.35;;;0.17;;
52041;SDS011;38052;45.944;13.624;2023-11-25T13:30:59;0.80;;;0.15;;
52041;SDS011;38052;45.944;13.624;2023-11-25T13:33:26;0.25;;;0.05;;
52041;SDS011;38052;45.944;13.624;2023-11-25T13:35:53;0.30;;;0.10;;
52041;SDS011;38052;45.944;13.624;2023-11-25T13:38:20;1.30;;;0.10;;
52041;SDS011;38052;45.944;13.624;2023-11-25T13:40:46;0.05;;;0.00;;
52041;SDS011;38052;45.944;13.624;2023-11-25T13:43:13;0.52;;;0.10;;
52041;SDS011;38052;45.944;13.624;2023-11-25T13:45:42;0.47;;;0.10;;
52041;SDS011;38052;45.944;13.624;2023-11-25T13:48:09;0.80;;;0.20;;
52041;SDS011;38052;45.944;13.624;2023-11-25T13:50:38;2.33;;;0.90;;
52041;SDS011;38052;45.944;13.624;2023-11-25T13:53:05;0.30;;;0.10;;
52041;SDS011;38052;45.944;13.624;2023-11-25T13:55:31;1.00;;;0.10;;
52041;SDS011;38052;45.944;13.624;2023-11-25T13:58:09;0.50;;;0.20;;
52041;SDS011;38052;45.944;13.624;2023-11-25T14:00:36;0.60;;;0.30;;
52041;SDS011;38052;45.944;13.624;2023-11-25T14:03:06;1.67;;;0.68;;
52041;SDS011;38052;45.944;13.624;2023-11-25T14:05:35;1.73;;;0.30;;
52041;SDS011;38052;45.944;13.624;2023-11-25T14:08:08;0.63;;;0.20;;
52041;SDS011;38052;45.944;13.624;2023-11-25T14:10:35;0.70;;;0.38;;
52041;SDS011;38052;45.944;13.624;2023-11-25T14:13:07;1.70;;;0.20;;
52041;SDS011;38052;45.944;13.624;2023-11-25T14:15:34;0.45;;;0.03;;
52041;SDS011;38052;45.944;13.624;2023-11-25T14:18:01;0.80;;;0.10;;
52041;SDS011;38052;45.944;13.624;2023-11-25T14:20:27;0.10;;;0.03;;
52041;SDS011;38052;45.944;13.624;2023-11-25T14:22:54;1.08;;;0.00;;
52041;SDS011;38052;45.944;13.624;2023-11-25T14:25:21;0.28;;;0.08;;
52041;SDS011;38052;45.944;13.624;2023-11-25T14:27:49;0.65;;;0.13;;
52041;SDS011;38052;45.944;13.624;2023-11-25T14:30:16;0.73;;;0.13;;
52041;SDS011;38052;45.944;13.624;2023-11-25T14:32:48;1.38;;;0.25;;
52041;SDS011;38052;45.944;13.624;2023-11-25T14:35:15;0.32;;;0.10;;
52041;SDS011;38052;45.944;13.624;2023-11-25T14:37:42;4.00;;;0.28;;
52041;SDS011;38052;45.944;13.624;2023-11-25T14:40:09;0.93;;;0.20;;
52041;SDS011;38052;45.944;13.624;2023-11-25T14:42:38;1.00;;;0.15;;
52041;SDS011;38052;45.944;13.624;2023-11-25T14:45:06;0.98;;;0.15;;
52041;SDS011;38052;45.944;13.624;2023-11-25T14:47:32;0.40;;;0.20;;
52041;SDS011;38052;45.944;13.624;2023-11-25T14:50:00;1.23;;;0.32;;